Time;durP1;ratioP1;P1;durP2;ratioP2;P2;SDS_P1;SDS_P2;PMS_P1;PMS_P2;Temp;Humidity;BMP_temperature;BMP_pressure;BME280_temperature;BME280_humidity;BME280_pressure;Samples;Min_cycle;Max_cycle;Signal;HPM_P1;HPM_P2
2023/02/21 06:52:56;;;;;;;;;80.00;63.67;;;;;3.56;100.00;101808.41;5889903;23;47768;-66
2023/02/21 06:55:22;;;;;;;;;84.33;64.67;;;;;3.71;100.00;101825.91;4902434;28;50226;-68
2023/02/21 06:57:48;;;;;;;;;82.00;65.00;;;;;4.12;100.00;101900.44;4895896;29;49591;-72
2023/02/21 07:00:15;;;;;;;;;83.67;64.67;;;;;3.91;100.00;101847.97;4894787;29;49949;-73
2023/02/21 07:02:41;;;;;;;;;82.00;65.00;;;;;3.93;100.00;101855.88;4894192;28;49917;-78
2023/02/21 07:05:06;;;;;;;;;79.33;64.00;;;;;4.10;100.00;101927.13;4895524;28;49909;-72
2023/02/21 07:07:32;;;;;;;;;75.67;60.33;;;;;4.15;100.00;101889.31;4895935;28;49627;-74
2023/02/21 07:09:58;;;;;;;;;86.00;66.67;;;;;3.62;100.00;101794.16;4894506;28;52191;-71
2023/02/21 07:12:23;;;;;;;;;90.67;69.00;;;;;3.77;100.00;101807.25;4895304;28;49742;-72
2023/02/21 07:14:48;;;;;;;;;84.00;65.00;;;;;4.21;100.00;101879.34;4893408;28;49663;-73
2023/02/21 07:17:14;;;;;;;;;79.67;63.33;;;;;3.98;100.00;101844.97;4895251;29;50297;-72
2023/02/21 07:19:41;;;;;;;;;83.33;65.00;;;;;3.40;100.00;101737.34;4900296;28;50483;-72
2023/02/21 07:22:06;;;;;;;;;81.67;62.33;;;;;4.25;100.00;101890.03;4898919;29;49794;-73
2023/02/21 07:24:32;;;;;;;;;81.00;65.00;;;;;3.76;100.00;101796.72;4895080;29;49854;-77
2023/02/21 07:26:58;;;;;;;;;83.33;65.00;;;;;4.29;100.00;101893.72;4897426;28;49835;-76
2023/02/21 07:29:24;;;;;;;;;80.00;63.67;;;;;4.33;100.00;101890.50;4898182;28;51002;-70
2023/02/21 07:31:49;;;;;;;;;78.00;58.67;;;;;3.87;100.00;101811.31;4901325;29;49597;-75
2023/02/21 07:34:15;;;;;;;;;82.67;63.67;;;;;3.73;100.00;101798.31;4894515;28;49963;-77
2023/02/21 07:36:41;;;;;;;;;81.33;63.00;;;;;4.46;100.00;101900.91;4896080;28;50029;-79
2023/02/21 07:39:06;;;;;;;;;78.00;60.67;;;;;2.85;100.00;101637.75;4899529;29;51146;-74
2023/02/21 07:41:31;;;;;;;;;85.00;60.67;;;;;4.38;100.00;101865.72;4897086;28;49767;-74
2023/02/21 07:43:57;;;;;;;;;71.67;58.33;;;;;4.11;100.00;101820.66;4894910;28;50195;-72
2023/02/21 07:46:26;;;;;;;;;83.67;65.00;;;;;4.48;100.00;101872.38;4898835;28;49208;-70
2023/02/21 07:48:52;;;;;;;;;87.00;65.00;;;;;4.54;100.00;101872.78;4899304;28;50007;-67
2023/02/21 07:51:17;;;;;;;;;76.67;59.00;;;;;4.59;100.00;101877.44;4900616;29;49819;-71
2023/02/21 07:53:42;;;;;;;;;59.00;49.00;;;;;4.34;100.00;101834.22;4895359;28;49645;-74
2023/02/21 07:56:08;;;;;;;;;77.00;59.33;;;;;4.32;100.00;101821.13;4896934;29;49889;-75
2023/02/21 07:58:36;;;;;;;;;81.67;63.33;;;;;4.36;100.00;101840.44;4897812;29;51126;-76
2023/02/21 08:01:03;;;;;;;;;77.33;63.00;;;;;4.81;100.00;101884.88;4897192;28;49844;-71
2023/02/21 08:03:28;;;;;;;;;81.33;62.33;;;;;4.68;100.00;101850.22;4901695;29;49772;-72
2023/02/21 08:05:54;;;;;;;;;77.67;61.33;;;;;4.72;100.00;101852.19;4901578;28;49981;-70
2023/02/21 08:08:19;;;;;;;;;80.33;57.33;;;;;4.66;100.00;101831.03;4905650;28;49612;-73
2023/02/21 08:10:45;;;;;;;;;77.33;62.33;;;;;4.89;100.00;101849.81;4893556;28;49948;-71
2023/02/21 08:13:10;;;;;;;;;62.00;49.33;;;;;4.83;100.00;101825.16;4894043;29;50025;-72
2023/02/21 08:15:35;;;;;;;;;82.33;63.33;;;;;5.18;100.00;101871.50;4894646;28;49711;-67
2023/02/21 08:18:01;;;;;;;;;80.33;62.67;;;;;5.19;100.00;101888.91;4894128;28;50826;-71
2023/02/21 08:20:26;;;;;;;;;82.00;63.67;;;;;4.87;100.00;101801.09;4894443;28;49752;-69
2023/02/21 08:22:52;;;;;;;;;80.00;64.00;;;;;4.82;100.00;101777.41;4894264;28;50081;-70
2023/02/21 08:25:17;;;;;;;;;80.33;63.00;;;;;5.30;100.00;101867.03;4894984;28;49605;-70
2023/02/21 08:27:43;;;;;;;;;82.33;64.33;;;;;5.49;100.00;101865.50;4895930;28;50223;-71
2023/02/21 08:30:13;;;;;;;;;75.67;62.33;;;;;5.47;100.00;101910.59;4894117;29;50000;-71
2023/02/21 08:32:39;;;;;;;;;85.00;67.00;;;;;5.44;100.00;101841.81;4894187;28;49805;-69
2023/02/21 08:35:05;;;;;;;;;82.67;62.67;;;;;5.67;100.00;101867.47;4893927;28;49978;-72
2023/02/21 08:37:35;;;;;;;;;88.67;67.00;;;;;5.73;100.00;101869.56;4903465;28;50442;-67
2023/02/21 08:40:00;;;;;;;;;87.67;66.67;;;;;5.49;100.00;101811.72;4897646;29;49818;-64
2023/02/21 08:42:26;;;;;;;;;79.00;62.33;;;;;5.62;100.00;101827.25;4893393;28;49701;-65
2023/02/21 08:44:51;;;;;;;;;86.00;63.67;;;;;5.36;100.00;101754.53;4894127;28;49763;-69
2023/02/21 08:47:16;;;;;;;;;80.33;62.33;;;;;6.02;100.00;101872.16;4886677;28;51028;-71
2023/02/21 08:49:46;;;;;;;;;84.67;67.33;;;;;4.83;100.00;101685.56;4880920;29;49989;-73
2023/02/21 08:52:15;;;;;;;;;77.00;61.00;;;;;5.64;100.00;101783.06;4884766;29;49975;-69
2023/02/21 08:54:41;;;;;;;;;82.67;65.33;;;;;5.80;100.00;101792.66;4885276;29;49929;-68
2023/02/21 08:57:06;;;;;;;;;81.33;63.00;;;;;6.11;100.00;101834.38;4885332;29;49927;-66
2023/02/21 08:59:33;;;;;;;;;88.00;66.33;;;;;6.11;100.00;101824.84;4884641;28;49861;-70
2023/02/21 09:02:00;;;;;;;;;84.33;65.00;;;;;6.09;100.00;101815.16;4891465;29;49893;-66
2023/02/21 09:04:26;;;;;;;;;84.00;66.33;;;;;6.03;100.00;101782.72;4904450;29;49401;-64
2023/02/21 09:06:52;;;;;;;;;82.67;65.33;;;;;6.33;100.00;101813.88;4899771;29;49824;-64
2023/02/21 09:09:19;;;;;;;;;78.00;63.00;;;;;6.52;100.00;101845.38;4892751;29;50046;-64
2023/02/21 09:11:47;;;;;;;;;77.00;63.00;;;;;6.27;100.00;101796.22;4892855;29;49864;-66
2023/02/21 09:14:13;;;;;;;;;85.67;68.00;;;;;6.56;100.00;101833.38;4893265;28;49623;-64
2023/02/21 09:16:38;;;;;;;;;85.33;64.67;;;;;6.49;100.00;101806.09;4893117;28;49936;-64
2023/02/21 09:19:05;;;;;;;;;85.33;65.67;;;;;6.46;100.00;101790.25;4892733;28;49928;-64
2023/02/21 09:21:32;;;;;;;;;91.33;69.00;;;;;6.99;100.00;101869.63;4892941;28;49933;-64
2023/02/21 09:23:58;;;;;;;;;87.67;67.33;;;;;6.94;100.00;101851.09;4897254;28;49864;-64
2023/02/21 09:26:25;;;;;;;;;89.67;68.00;;;;;7.08;100.00;101883.16;4894593;28;49964;-63
2023/02/21 09:28:51;;;;;;;;;86.67;68.00;;;;;6.62;100.00;101772.81;4896178;28;49736;-65
2023/02/21 09:31:18;;;;;;;;;86.67;71.33;;;;;7.02;100.00;101828.00;4893509;28;49971;-69
2023/02/21 09:33:44;;;;;;;;;84.00;65.00;;;;;6.26;100.00;101729.22;4893518;28;49772;-73
2023/02/21 09:36:11;;;;;;;;;83.67;66.67;;;;;7.31;100.00;101861.72;4893171;29;49799;-70
2023/02/21 09:38:40;;;;;;;;;85.67;67.00;;;;;5.94;100.00;101607.59;4896102;28;49814;-73
2023/02/21 09:41:10;;;;;;;;;90.33;68.33;;;;;7.43;100.00;101853.63;4897214;28;49824;-72
2023/02/21 09:43:45;;;;;;;;;89.00;69.00;;;;;6.93;100.00;101762.25;4890690;28;49711;-70
2023/02/21 09:46:24;;;;;;;;;89.67;67.67;;;;;7.35;100.00;101819.28;4885504;29;49808;-69
2023/02/21 09:48:50;;;;;;;;;87.67;68.00;;;;;7.29;100.00;101790.25;4886826;28;50050;-67
2023/02/21 09:51:16;;;;;;;;;88.67;67.33;;;;;6.26;100.00;101622.28;4886088;29;50071;-71
2023/02/21 09:53:45;;;;;;;;;83.00;66.33;;;;;7.49;100.00;101793.84;4890577;28;50082;-74
2023/02/21 09:56:13;;;;;;;;;87.67;69.33;;;;;7.46;100.00;101771.09;4891007;29;50685;-68
2023/02/21 09:58:44;;;;;;;;;88.00;67.67;;;;;7.75;100.00;101808.22;4892235;28;49954;-69
2023/02/21 10:01:41;;;;;;;;;89.00;73.33;;;;;8.01;100.00;101840.84;4889019;29;49813;-66
2023/02/21 10:04:32;;;;;;;;;90.67;70.67;;;;;8.08;100.00;101836.78;4889456;29;50371;-75
2023/02/21 10:07:20;;;;;;;;;86.33;67.67;;;;;8.16;100.00;101833.72;4878624;28;49801;-70
2023/02/21 10:10:14;;;;;;;;;88.67;68.00;;;;;8.16;100.00;101823.25;4887119;28;49789;-72
2023/02/21 10:12:55;;;;;;;;;95.67;76.67;;;;;8.33;100.00;101847.59;4883277;29;49646;-69
2023/02/21 10:15:52;;;;;;;;;92.00;70.67;;;;;8.00;100.00;101771.03;4893949;29;50047;-67
2023/02/21 10:18:39;;;;;;;;;94.00;79.00;;;;;8.43;100.00;101839.41;4890002;29;49893;-71
2023/02/21 10:21:16;;;;;;;;;89.67;75.33;;;;;8.47;100.00;101836.09;4885082;29;50111;-69
2023/02/21 10:23:47;;;;;;;;;91.33;72.67;;;;;8.02;100.00;101744.16;4891202;28;49900;-71
2023/02/21 10:26:25;;;;;;;;;90.00;70.67;;;;;8.38;100.00;101800.75;4892184;29;49941;-69
2023/02/21 10:28:51;;;;;;;;;91.33;71.00;;;;;8.34;100.00;101783.97;4888652;29;50381;-77
2023/02/21 10:31:24;;;;;;;;;91.00;71.67;;;;;8.42;100.00;101793.13;4887039;29;50043;-68
2023/02/21 10:33:50;;;;;;;;;90.33;73.00;;;;;8.75;100.00;101837.34;4887298;28;49834;-70
2023/02/21 10:36:21;;;;;;;;;96.00;79.67;;;;;8.81;100.00;101846.38;4888886;28;50562;-69
2023/02/21 10:38:56;;;;;;;;;90.67;72.00;;;;;8.57;100.00;101774.59;4886126;29;50065;-68
2023/02/21 10:41:26;;;;;;;;;90.67;75.00;;;;;8.91;100.00;101824.13;4888403;28;49901;-72
2023/02/21 10:43:58;;;;;;;;;82.33;65.00;;;;;8.96;100.00;101825.22;4888207;29;49768;-74
2023/02/21 10:46:36;;;;;;;;;91.00;73.00;;;;;8.97;100.00;101819.13;4889857;29;49865;-73
2023/02/21 10:49:23;;;;;;;;;88.00;72.00;;;;;9.01;100.00;101813.22;4890394;28;49830;-70
2023/02/21 10:52:11;;;;;;;;;93.33;79.00;;;;;8.68;100.00;101747.16;4889960;29;49747;-67
2023/02/21 10:54:36;;;;;;;;;86.33;68.33;;;;;7.82;100.00;101595.94;4895011;28;50000;-73
2023/02/21 10:57:05;;;;;;;;;94.00;77.00;;;;;8.89;100.00;101744.59;4895085;28;49811;-70
2023/02/21 10:59:34;;;;;;;;;92.67;79.33;;;;;9.03;100.00;101745.19;4894625;28;50081;-67
2023/02/21 11:02:02;;;;;;;;;90.33;69.33;;;;;8.45;100.00;101631.00;4890414;28;49994;-80
2023/02/21 11:04:33;;;;;;;;;83.67;66.00;;;;;9.48;100.00;101796.03;4893729;29;50066;-67
2023/02/21 11:07:08;;;;;;;;;93.67;75.00;;;;;9.15;100.00;101723.00;4894140;28;50033;-69
2023/02/21 11:09:43;;;;;;;;;81.67;65.67;;;;;9.61;100.00;101795.69;4897157;28;50655;-67
2023/02/21 11:12:14;;;;;;;;;89.33;70.00;;;;;9.65;100.00;101789.75;4893764;28;49889;-70
2023/02/21 11:14:41;;;;;;;;;94.33;77.00;;;;;9.64;100.00;101776.56;4894529;28;50014;-67
2023/02/21 11:17:15;;;;;;;;;86.67;72.67;;;;;9.56;100.00;101736.06;4892885;28;50042;-67
2023/02/21 11:19:42;;;;;;;;;85.67;70.67;;;;;9.69;100.00;101739.22;4902928;29;50967;-67
2023/02/21 11:22:08;;;;;;;;;84.33;67.67;;;;;9.49;100.00;101729.66;4898926;28;49867;-71
2023/02/21 11:25:04;;;;;;;;;93.67;78.00;;;;;10.04;100.00;101758.97;4894794;28;49898;-76
2023/02/21 11:27:32;;;;;;;;;90.33;75.67;;;;;9.84;100.00;101696.94;4899329;29;49799;-70
2023/02/21 11:30:01;;;;;;;;;84.33;71.00;;;;;10.28;100.00;101760.75;4905717;28;50141;-69
2023/02/21 11:32:55;;;;;;;;;88.67;75.00;;;;;10.37;100.00;101718.22;4897594;28;49720;-70
2023/02/21 11:35:25;;;;;;;;;88.33;73.33;;;;;10.70;100.00;101755.28;4898802;29;49782;-69
2023/02/21 11:38:00;;;;;;;;;82.67;68.67;;;;;10.39;100.00;101674.53;4896018;29;49973;-69
2023/02/21 11:40:41;;;;;;;;;91.00;76.33;;;;;10.39;100.00;101643.03;4899236;29;52411;-68
2023/02/21 11:43:21;;;;;;;;;90.00;75.00;;;;;11.01;100.00;101736.28;4904129;28;49685;-68
2023/02/21 11:46:11;;;;;;;;;85.00;70.67;;;;;11.12;100.00;101719.16;4899041;29;49709;-69
2023/02/21 11:49:07;;;;;;;;;86.67;74.33;;;;;11.29;100.00;101717.06;4901921;29;49811;-70
2023/02/21 11:51:52;;;;;;;;;83.00;67.33;;;;;11.18;100.00;101666.75;4895191;28;50495;-69
2023/02/21 11:54:23;;;;;;;;;86.67;69.33;;;;;11.58;100.00;101716.28;4894474;28;49841;-69
2023/02/21 11:57:02;;;;;;;;;84.00;70.00;;;;;11.70;100.00;101706.16;4894372;28;49847;-69
2023/02/21 11:59:55;;;;;;;;;84.00;65.00;;;;;11.84;100.00;101709.22;4893284;29;49792;-69
2023/02/21 12:02:35;;;;;;;;;86.33;73.00;;;;;11.97;100.00;101684.19;4884730;28;50647;-69
2023/02/21 12:05:16;;;;;;;;;79.00;62.33;;;;;11.73;100.00;101613.28;4894348;28;49917;-69
2023/02/21 12:08:15;;;;;;;;;89.00;71.33;;;;;11.92;100.00;101631.41;4896815;28;49901;-69
2023/02/21 12:10:52;;;;;;;;;87.67;70.00;;;;;11.84;100.00;101592.56;4894631;28;50095;-69
2023/02/21 12:14:05;;;;;;;;;85.67;70.00;;;;;11.64;100.00;101539.38;4889314;29;51139;-69
2023/02/21 12:16:45;;;;;;;;;84.67;68.00;;;;;12.48;100.00;101665.47;4893780;28;49911;-69
2023/02/21 12:19:51;;;;;;;;;81.33;67.33;;;;;12.54;100.00;101655.97;4894408;28;49831;-69
2023/02/21 12:22:35;;;;;;;;;86.33;70.33;;;;;12.59;100.00;101641.19;4894332;28;50031;-70
2023/02/21 12:25:25;;;;;;;;;82.00;62.67;;;;;12.61;100.00;101642.13;4893839;28;50813;-70
2023/02/21 12:28:02;;;;;;;;;82.33;65.00;;;;;12.65;100.00;101607.97;4894159;28;49749;-70
2023/02/21 12:30:45;;;;;;;;;80.33;64.00;;;;;12.89;100.00;101632.28;4896941;29;50073;-72
2023/02/21 12:33:10;;;;;;;;;83.00;64.67;;;;;12.97;100.00;101625.47;4894348;28;49800;-70
2023/02/21 12:36:14;;;;;;;;;76.33;62.00;;;;;12.90;100.00;101595.44;4893956;29;50236;-68
2023/02/21 12:39:01;;;;;;;;;80.00;65.33;;;;;13.17;100.00;101620.69;4888995;29;49670;-70
2023/02/21 12:42:23;;;;;;;;;79.67;61.00;;;;;13.31;100.00;101607.84;4894656;28;49789;-67
2023/02/21 12:45:15;;;;;;;;;74.75;58.50;;;;;13.25;100.00;101576.09;4878505;29;50346;-69
2023/02/21 12:47:59;;;;;;;;;68.25;54.25;;;;;13.47;100.00;101591.53;4842438;29;52203;-69
2023/02/21 12:50:32;;;;;;;;;77.00;59.50;;;;;13.37;100.00;101579.00;4889595;29;49822;-69
2023/02/21 12:53:32;;;;;;;;;73.25;57.75;;;;;12.88;100.00;101488.22;4893403;28;49870;-69
2023/02/21 12:56:35;;;;;;;;;75.75;58.00;;;;;13.18;100.00;101517.91;4886337;28;49973;-68
2023/02/21 12:59:26;;;;;;;;;74.75;59.00;;;;;13.43;100.00;101568.59;4893777;28;50616;-72
2023/02/21 13:02:00;;;;;;;;;79.50;59.75;;;;;13.35;100.00;101551.69;4893909;28;49862;-69
2023/02/21 13:04:57;;;;;;;;;73.25;58.50;;;;;13.41;100.00;101555.38;4893865;28;49802;-73
2023/02/21 13:07:34;;;;;;;;;81.25;61.25;;;;;13.04;100.00;101487.72;4892246;28;49742;-72
2023/02/21 13:10:05;;;;;;;;;76.75;60.50;;;;;13.42;100.00;101546.59;4893427;28;50914;-70
2023/02/21 13:12:40;;;;;;;;;72.75;57.75;;;;;13.35;100.00;101531.50;4891369;29;49938;-68
2023/02/21 13:15:20;;;;;;;;;77.00;59.00;;;;;13.26;100.00;101522.50;4893763;28;49760;-69
2023/02/21 13:18:08;;;;;;;;;71.50;57.50;;;;;13.45;100.00;101532.56;4894013;28;49725;-68
2023/02/21 13:20:40;;;;;;;;;68.75;55.75;;;;;13.48;100.00;101527.34;4890449;28;51122;-70
2023/02/21 13:23:57;;;;;;;;;73.00;55.50;;;;;13.51;100.00;101514.25;4893207;29;49711;-68
2023/02/21 13:26:39;;;;;;;;;72.50;56.25;;;;;13.44;100.00;101500.03;4893382;28;49733;-70
2023/02/21 13:29:16;;;;;;;;;67.25;54.00;;;;;13.43;100.00;101505.28;4893496;28;49957;-70
2023/02/21 13:31:44;;;;;;;;;63.75;51.50;;;;;13.20;100.00;101446.78;4893281;29;49885;-71
2023/02/21 13:34:15;;;;;;;;;64.50;53.25;;;;;13.56;100.00;101522.25;4893445;28;49909;-73
2023/02/21 13:36:43;;;;;;;;;66.00;53.25;;;;;12.92;100.00;101400.44;4892983;28;49782;-70
2023/02/21 13:39:16;;;;;;;;;71.50;53.25;;;;;13.22;100.00;101438.88;4893535;28;49757;-71
2023/02/21 13:41:49;;;;;;;;;66.75;53.25;;;;;13.41;100.00;101462.13;4893207;28;50899;-71
2023/02/21 13:44:33;;;;;;;;;64.50;50.00;;;;;13.30;100.00;101432.91;4893042;28;49736;-70
2023/02/21 13:47:09;;;;;;;;;57.50;47.75;;;;;13.64;100.00;101489.00;4891684;29;50033;-70
2023/02/21 13:49:50;;;;;;;;;65.00;52.25;;;;;13.67;100.00;101475.88;4893588;29;50107;-70
2023/02/21 13:52:21;;;;;;;;;60.00;51.00;;;;;13.70;100.00;101473.28;4892785;29;50034;-74
2023/02/21 13:55:14;;;;;;;;;64.75;51.75;;;;;13.72;100.00;101467.19;4893046;28;50056;-71
2023/02/21 13:57:49;;;;;;;;;70.50;53.00;;;;;13.82;100.00;101464.72;4888023;29;49821;-71
2023/02/21 14:00:23;;;;;;;;;61.25;51.25;;;;;13.84;100.00;101442.78;4893502;28;49762;-70
2023/02/21 14:03:11;;;;;;;;;62.50;50.50;;;;;13.96;100.00;101450.91;4892680;28;50338;-70
2023/02/21 14:05:45;;;;;;;;;55.50;47.00;;;;;14.00;100.00;101446.59;4892990;28;49807;-71
2023/02/21 14:08:32;;;;;;;;;50.75;43.75;;;;;14.02;100.00;101447.50;4892705;28;49756;-71
2023/02/21 14:11:12;;;;;;;;;50.00;41.75;;;;;14.00;100.00;101434.28;4893376;28;49949;-71
2023/02/21 14:13:50;;;;;;;;;57.25;47.25;;;;;13.89;100.00;101393.56;4892646;28;49648;-70
2023/02/21 14:16:21;;;;;;;;;60.50;50.25;;;;;13.91;100.00;101404.19;4892699;28;49636;-70
2023/02/21 14:18:56;;;;;;;;;58.75;48.00;;;;;14.17;100.00;101437.19;4892964;28;50038;-70
2023/02/21 14:21:33;;;;;;;;;60.00;48.75;;;;;14.19;100.00;101429.31;4892511;29;49819;-70
2023/02/21 14:24:14;;;;;;;;;60.75;48.00;;;;;14.11;100.00;101408.06;4893986;29;50493;-72
2023/02/21 14:26:39;;;;;;;;;53.75;45.25;;;;;14.26;100.00;101421.50;4895985;28;49763;-71
2023/02/21 14:29:07;;;;;;;;;53.00;43.00;;;;;14.28;100.00;101421.50;4896231;28;49825;-71
2023/02/21 14:32:00;;;;;;;;;57.00;45.75;;;;;14.33;100.00;101418.09;4896154;29;50148;-70
2023/02/21 14:34:38;;;;;;;;;51.25;41.50;;;;;14.16;100.00;101361.47;4895823;28;49923;-71
2023/02/21 14:37:13;;;;;;;;;45.75;40.00;;;;;14.31;100.00;101377.56;4895507;28;49837;-70
2023/02/21 14:39:43;;;;;;;;;48.50;41.00;;;;;14.15;100.00;101335.94;4896087;28;49740;-70
2023/02/21 14:42:30;;;;;;;;;41.00;35.50;;;;;14.60;100.00;101393.88;4897941;29;50189;-71
2023/02/21 14:45:24;;;;;;;;;47.25;39.75;;;;;14.41;100.00;101364.50;4894302;29;50861;-71
2023/02/21 14:48:08;;;;;;;;;43.75;38.50;;;;;14.49;100.00;101381.38;4902324;29;49820;-71
2023/02/21 14:50:49;;;;;;;;;45.00;37.75;;;;;14.49;100.00;101381.38;4910192;28;49527;-71
2023/02/21 14:53:36;;;;;;;;;47.25;37.25;;;;;14.05;100.00;101299.69;4894027;29;50046;-71
2023/02/21 14:56:28;;;;;;;;;32.50;29.50;;;;;14.58;100.00;101381.53;4885017;29;49815;-70
2023/02/21 14:59:33;;;;;;;;;42.50;34.50;;;;;14.22;100.00;101321.09;4899208;29;50284;-72
2023/02/21 15:02:19;;;;;;;;;32.50;32.50;;;;;14.35;100.00;101336.22;4891965;28;50470;-73
2023/02/21 15:05:18;;;;;;;;;35.25;31.75;;;;;13.87;100.00;101257.19;4904194;29;49336;-72
2023/02/21 15:07:47;;;;;;;;;44.25;35.75;;;;;14.58;100.00;101377.13;4893714;29;50667;-72
2023/02/21 15:10:15;;;;;;;;;38.50;34.50;;;;;14.20;100.00;101306.97;4896174;28;50273;-68
2023/02/21 15:12:50;;;;;;;;;36.25;32.00;;;;;14.26;100.00;101314.97;4886624;29;50005;-69
2023/02/21 15:15:21;;;;;;;;;28.25;26.75;;;;;14.60;100.00;101383.31;4897734;28;49780;-69
2023/02/21 15:18:08;;;;;;;;;42.50;35.50;;;;;14.59;100.00;101373.63;4895603;28;50645;-68
2023/02/21 15:20:39;;;;;;;;;40.50;35.50;;;;;14.60;99.97;101374.50;4895093;28;49776;-69
2023/02/21 15:23:14;;;;;;;;;32.75;31.75;;;;;13.97;100.00;101264.38;4895107;28;49729;-68
2023/02/21 15:25:41;;;;;;;;;44.00;33.75;;;;;14.49;100.00;101354.97;4892369;29;49813;-67
2023/02/21 15:28:19;;;;;;;;;34.00;30.75;;;;;14.46;100.00;101346.97;4900813;28;50553;-68
2023/02/21 15:30:59;;;;;;;;;36.50;33.00;;;;;14.37;100.00;101344.16;4894075;28;49949;-80
2023/02/21 15:33:29;;;;;;;;;42.50;34.00;;;;;14.50;100.00;101372.59;4904445;28;50438;-83
2023/02/21 15:36:02;;;;;;;;;33.50;33.00;;;;;14.23;100.00;101325.50;4894452;28;49911;-67
2023/02/21 15:39:09;;;;;;;;;36.50;30.75;;;;;14.50;100.00;101362.03;4898754;29;50530;-67
2023/02/21 15:41:44;;;;;;;;;37.25;35.00;;;;;14.33;100.00;101336.22;4889357;28;49888;-67
2023/02/21 15:44:31;;;;;;;;;38.25;33.75;;;;;14.27;100.00;101316.75;4894264;29;49759;-77
2023/02/21 15:47:29;;;;;;;;;36.00;34.75;;;;;14.32;100.00;101334.44;5051488;28;49758;-66
2023/02/21 15:50:09;;;;;;;;;39.75;35.75;;;;;14.47;100.00;101356.69;5025308;28;49776;-65
2023/02/21 15:52:52;;;;;;;;;47.75;40.50;;;;;14.12;100.00;101292.78;5026146;28;49781;-65
2023/02/21 15:55:17;;;;;;;;;48.00;40.75;;;;;14.34;100.00;101329.19;5006585;28;52549;-74
2023/02/21 15:57:43;;;;;;;;;45.25;38.50;;;;;14.17;100.00;101301.63;5026775;28;49734;-66
2023/02/21 16:00:16;;;;;;;;;45.00;39.00;;;;;14.45;100.00;101346.09;5025274;28;50414;-66
2023/02/21 16:02:42;;;;;;;;;42.00;37.00;;;;;14.37;100.00;101336.25;5026689;28;49734;-66
2023/02/21 16:05:24;;;;;;;;;47.00;38.50;;;;;14.41;100.00;101330.16;5026263;28;50790;-67
2023/02/21 16:07:53;;;;;;;;;37.25;36.00;;;;;14.21;100.00;101314.03;5025860;28;49904;-72
2023/02/21 16:10:22;;;;;;;;;39.75;36.75;;;;;14.38;100.00;101328.38;5026606;28;49788;-65
2023/02/21 16:12:55;;;;;;;;;42.25;34.00;;;;;14.36;100.00;101330.06;5026600;28;49987;-66
2023/02/21 16:15:23;;;;;;;;;39.25;34.25;;;;;14.31;100.00;101332.66;5025942;28;50995;-66
2023/02/21 16:17:54;;;;;;;;;43.00;36.00;;;;;14.22;100.00;101318.44;5026155;28;49795;-66
2023/02/21 16:20:28;;;;;;;;;41.25;34.75;;;;;14.21;100.00;101322.84;5028179;28;49830;-65
2023/02/21 16:23:19;;;;;;;;;42.00;36.50;;;;;14.21;100.00;101322.84;5030978;28;49976;-65
2023/02/21 16:25:53;;;;;;;;;45.25;37.75;;;;;14.19;100.00;101327.22;5031274;28;50322;-65
2023/02/21 16:28:18;;;;;;;;;44.50;38.25;;;;;13.92;100.00;101284.56;5033965;28;50092;-65
2023/02/21 16:30:44;;;;;;;;;35.75;33.25;;;;;13.88;100.00;101275.69;5030179;28;49864;-70
2023/02/21 16:33:12;;;;;;;;;36.75;33.75;;;;;13.91;100.00;101290.69;5027607;28;49964;-72
2023/02/21 16:35:41;;;;;;;;;37.75;35.25;;;;;14.06;100.00;101316.44;5034585;28;50748;-65
2023/02/21 16:38:14;;;;;;;;;39.25;30.50;;;;;13.95;100.00;101313.63;5031190;28;49847;-66
2023/02/21 16:40:39;;;;;;;;;48.50;34.75;;;;;13.83;100.00;101295.84;5030946;28;50779;-72
2023/02/21 16:43:05;;;;;;;;;38.75;34.00;;;;;13.69;100.00;101306.16;5030659;28;49710;-67
2023/02/21 16:45:31;;;;;;;;;30.50;29.00;;;;;13.80;100.00;101295.81;5025378;28;49843;-67
2023/02/21 16:47:58;;;;;;;;;32.75;32.00;;;;;13.88;100.00;101322.28;5025752;28;49827;-67
2023/02/21 16:50:33;;;;;;;;;35.50;33.50;;;;;13.84;100.00;101321.38;5025725;28;49781;-66
2023/02/21 16:53:00;;;;;;;;;40.50;36.25;;;;;13.15;100.00;101209.41;5024296;28;49946;-67
2023/02/21 16:55:26;;;;;;;;;37.50;33.75;;;;;13.28;100.00;101291.38;5025436;28;50042;-66
2023/02/21 16:57:55;;;;;;;;;45.25;34.50;;;;;13.50;100.00;101282.06;5017578;28;49957;-66
2023/02/21 17:00:21;;;;;;;;;33.00;32.75;;;;;13.55;100.00;101301.53;5012734;28;49563;-66
2023/02/21 17:02:48;;;;;;;;;34.00;31.50;;;;;13.12;100.00;101256.81;5011883;28;49908;-67
2023/02/21 17:05:15;;;;;;;;;32.25;29.25;;;;;13.16;100.00;101256.00;5009648;28;51191;-67
2023/02/21 17:07:41;;;;;;;;;33.25;31.00;;;;;13.45;100.00;101333.00;5010023;28;49715;-66
2023/02/21 17:10:07;;;;;;;;;34.00;34.00;;;;;12.87;100.00;101215.03;5011857;28;49878;-66
2023/02/21 17:12:32;;;;;;;;;32.00;28.75;;;;;13.16;100.00;101278.81;5012411;28;50202;-67
2023/02/21 17:14:58;;;;;;;;;33.50;29.00;;;;;13.15;100.00;101285.84;5010801;28;51252;-67
2023/02/21 17:17:23;;;;;;;;;29.75;26.25;;;;;13.36;100.00;101331.97;5012277;28;49893;-67
2023/02/21 17:19:49;;;;;;;;;36.25;32.75;;;;;13.02;100.00;101293.47;5011221;28;49865;-67
2023/02/21 17:22:14;;;;;;;;;50.50;40.50;;;;;12.96;100.00;101289.00;5011801;28;50012;-68
2023/02/21 17:24:41;;;;;;;;;46.25;36.75;;;;;13.07;100.00;101316.44;5012054;28;51169;-68
2023/02/21 17:27:06;;;;;;;;;46.00;37.00;;;;;12.92;100.00;101300.31;5011958;28;49926;-68
2023/02/21 17:29:32;;;;;;;;;47.50;40.50;;;;;12.74;100.00;101278.88;5010821;28;50302;-68
2023/02/21 17:31:57;;;;;;;;;52.25;42.75;;;;;12.73;100.00;101293.78;5005840;28;49584;-68
2023/02/21 17:34:23;;;;;;;;;49.25;39.25;;;;;12.98;100.00;101341.72;5011844;28;50868;-67
2023/02/21 17:36:50;;;;;;;;;41.50;38.00;;;;;12.61;100.00;101281.25;5011463;28;49840;-67
2023/02/21 17:39:19;;;;;;;;;40.50;35.50;;;;;12.70;100.00;101303.38;5011901;28;50026;-68
2023/02/21 17:41:49;;;;;;;;;47.00;38.50;;;;;12.87;100.00;101337.13;5016827;28;49908;-70
2023/02/21 17:44:14;;;;;;;;;51.00;41.50;;;;;12.68;100.00;101310.38;5016505;28;50372;-71
2023/02/21 17:46:47;;;;;;;;;50.50;42.00;;;;;12.71;100.00;101323.59;5010740;28;49895;-70
2023/02/21 17:49:12;;;;;;;;;47.75;41.75;;;;;12.59;100.00;101311.94;5011610;28;49735;-70
2023/02/21 17:51:37;;;;;;;;;49.50;40.75;;;;;12.46;100.00;101286.22;5010435;28;49745;-70
2023/02/21 17:54:03;;;;;;;;;49.25;40.75;;;;;12.41;100.00;101277.31;5011584;28;49859;-68
2023/02/21 17:56:28;;;;;;;;;46.00;39.50;;;;;12.46;100.00;101299.38;5011726;28;49887;-68
2023/02/21 17:58:54;;;;;;;;;49.75;40.75;;;;;12.56;100.00;101325.06;5011413;28;49860;-71
2023/02/21 18:01:20;;;;;;;;;54.75;45.50;;;;;12.67;100.00;101333.19;5011872;28;49797;-71
2023/02/21 18:03:46;;;;;;;;;50.75;40.75;;;;;12.54;100.00;101317.97;5011480;28;50137;-71
2023/02/21 18:06:13;;;;;;;;;48.75;42.75;;;;;12.65;100.00;101332.28;5011193;28;49723;-70
2023/02/21 18:08:38;;;;;;;;;50.50;42.50;;;;;12.63;100.00;101341.88;5011038;28;49908;-70
2023/02/21 18:11:07;;;;;;;;;53.00;42.25;;;;;12.55;100.00;101327.66;5011391;28;50304;-70
2023/02/21 18:13:32;;;;;;;;;57.50;46.25;;;;;12.30;100.00;101285.00;5011129;28;50230;-70
2023/02/21 18:16:00;;;;;;;;;54.75;44.00;;;;;12.14;100.00;101261.81;5018141;28;49932;-72
2023/02/21 18:18:25;;;;;;;;;51.25;43.75;;;;;12.36;100.00;101305.31;5011759;28;51059;-68
2023/02/21 18:20:51;;;;;;;;;50.00;40.25;;;;;12.23;100.00;101287.44;5011666;28;50236;-64
2023/02/21 18:23:17;;;;;;;;;48.50;41.00;;;;;12.48;100.00;101331.03;5008762;28;51687;-67
2023/02/21 18:25:43;;;;;;;;;47.75;40.50;;;;;12.33;100.00;101321.00;5011422;28;49829;-69